createdAt,value
2019-04-05T00:00:13.128Z,57.39
2019-04-05T00:01:13.113Z,56.99
2019-04-05T00:02:13.100Z,57.17
2019-04-05T00:03:13.105Z,56.88
2019-04-05T00:04:13.074Z,57.29
2019-04-05T00:05:13.065Z,57.80
2019-04-05T00:06:13.052Z,58.21
2019-04-05T00:07:13.047Z,57.90
2019-04-05T00:08:13.033Z,58.14
2019-04-05T00:09:13.035Z,57.93
2019-04-05T00:10:13.011Z,58.14
2019-04-05T00:11:12.995Z,58.03
2019-04-05T00:12:12.994Z,57.80
2019-04-05T00:13:12.996Z,57.29
2019-04-05T00:14:12.970Z,57.29
2019-04-05T00:15:15.494Z,57.29
2019-04-05T00:16:12.939Z,57.80
2019-04-05T00:17:12.931Z,58.01
2019-04-05T00:18:12.914Z,57.90
2019-04-05T00:19:12.913Z,57.70
2019-04-05T00:20:12.899Z,57.90
2019-04-05T00:21:12.883Z,57.93
2019-04-05T00:22:12.877Z,58.14
2019-04-05T00:23:12.860Z,57.73
2019-04-05T00:24:12.884Z,57.80
2019-04-05T00:25:12.843Z,57.93
2019-04-05T00:26:12.841Z,58.14
2019-04-05T00:27:12.820Z,58.23
2019-04-05T00:28:12.813Z,57.83
2019-04-05T00:29:12.795Z,58.03
2019-04-05T00:30:12.796Z,58.14
2019-04-05T00:31:12.771Z,57.73
2019-04-05T00:32:12.763Z,57.73
2019-04-05T00:33:12.750Z,57.73
2019-04-05T00:34:12.744Z,58.14
2019-04-05T00:35:12.743Z,58.14
2019-04-05T00:36:12.745Z,58.85
2019-04-05T00:37:12.705Z,58.37
2019-04-05T00:38:12.692Z,58.57
2019-04-05T00:39:12.697Z,58.67
2019-04-05T00:40:12.669Z,58.64
2019-04-05T00:41:12.680Z,58.67
2019-04-05T00:42:12.653Z,58.67
2019-04-05T00:43:12.644Z,58.44
2019-04-05T00:44:12.628Z,58.16
2019-04-05T00:45:12.625Z,58.57
2019-04-05T00:46:12.612Z,58.03
2019-04-05T00:47:12.599Z,58.16
2019-04-05T00:48:12.581Z,58.16
2019-04-05T00:49:12.597Z,58.06
2019-04-05T00:50:12.558Z,58.67
2019-04-05T00:51:12.560Z,58.57
2019-04-05T00:52:12.683Z,57.75
2019-04-05T00:53:12.523Z,58.67
2019-04-05T00:54:12.514Z,58.80
2019-04-05T00:55:12.507Z,59.11
2019-04-05T00:56:12.497Z,59.00
2019-04-05T00:57:12.479Z,59.62
2019-04-05T00:58:12.481Z,59.64
2019-04-05T00:59:12.460Z,59.55
2019-04-05T01:00:12.453Z,59.34
2019-04-05T01:01:12.433Z,59.85
2019-04-05T01:02:12.442Z,59.85
2019-04-05T01:03:13.316Z,59.75
2019-04-05T01:04:12.401Z,59.64
2019-04-05T01:05:12.388Z,59.75
2019-04-05T01:06:12.378Z,59.55
2019-04-05T01:07:12.370Z,59.64
2019-04-05T01:08:12.358Z,59.75
2019-04-05T01:09:12.355Z,59.67
2019-04-05T01:10:12.334Z,59.55
2019-04-05T01:11:12.323Z,59.75
2019-04-05T01:12:12.318Z,60.46
2019-04-05T01:13:12.299Z,60.46
2019-04-05T01:14:26.879Z,60.60
2019-04-05T01:15:12.285Z,60.49
2019-04-05T01:16:12.267Z,59.98
2019-04-05T01:17:24.152Z,60.28
2019-04-05T01:18:13.244Z,60.39
2019-04-05T01:19:12.251Z,60.69
2019-04-05T01:20:12.222Z,60.83
2019-04-05T01:21:12.206Z,61.13
2019-04-05T01:22:12.196Z,61.34
2019-04-05T01:23:12.195Z,61.65
2019-04-05T01:24:12.184Z,61.16
2019-04-05T01:25:12.164Z,61.26
2019-04-05T01:26:12.148Z,61.75
2019-04-05T01:27:12.141Z,61.88
2019-04-05T01:28:12.164Z,61.77
2019-04-05T01:29:12.125Z,61.88
2019-04-05T01:30:12.111Z,62.18
2019-04-05T01:31:12.119Z,62.08
2019-04-05T01:32:12.090Z,62.39
2019-04-05T01:33:12.072Z,62.70
2019-04-05T01:34:12.071Z,63.00
2019-04-05T01:35:12.055Z,63.13
2019-04-05T01:36:12.040Z,63.13
2019-04-05T01:37:12.043Z,63.03
2019-04-05T01:38:12.040Z,63.44
2019-04-05T01:39:12.008Z,63.13
2019-04-05T01:40:11.999Z,63.34
2019-04-05T01:41:11.986Z,63.13
2019-04-05T01:42:11.983Z,63.54
2019-04-05T01:43:11.969Z,63.13
2019-04-05T01:44:11.959Z,63.03
2019-04-05T01:45:11.940Z,63.34
2019-04-05T01:46:11.931Z,63.03
2019-04-05T01:47:11.966Z,63.03
2019-04-05T01:48:11.910Z,62.76
2019-04-05T01:49:11.896Z,63.13
2019-04-05T01:50:11.891Z,63.34
2019-04-05T01:51:11.904Z,63.24
2019-04-05T01:52:11.871Z,63.34
2019-04-05T01:53:11.873Z,63.03
2019-04-05T01:54:11.843Z,63.13
2019-04-05T01:55:11.840Z,62.83
2019-04-05T01:56:11.820Z,63.34
2019-04-05T01:57:11.811Z,63.03
2019-04-05T01:58:11.834Z,62.93
2019-04-05T01:59:11.794Z,63.34
2019-04-05T02:00:11.778Z,62.83
2019-04-05T02:01:11.788Z,62.62
2019-04-05T02:02:11.757Z,63.44
2019-04-05T02:03:11.750Z,63.13
2019-04-05T02:04:11.747Z,63.17
2019-04-05T02:05:11.722Z,63.26
2019-04-05T02:06:11.713Z,63.34
2019-04-05T02:07:11.708Z,63.17
2019-04-05T02:08:11.694Z,63.44
2019-04-05T02:09:11.684Z,63.17
2019-04-05T02:10:11.674Z,62.96
2019-04-05T02:11:11.673Z,63.37
2019-04-05T02:12:11.653Z,63.57
2019-04-05T02:13:11.637Z,63.37
2019-04-05T02:14:11.644Z,63.88
2019-04-05T02:15:11.619Z,63.57
2019-04-05T02:16:11.617Z,64.39
2019-04-05T02:17:11.591Z,63.47
2019-04-05T02:18:11.581Z,63.98
2019-04-05T02:19:11.569Z,63.68
2019-04-05T02:20:11.566Z,64.29
2019-04-05T02:21:11.590Z,63.98
2019-04-05T02:22:11.541Z,63.57
2019-04-05T02:23:11.535Z,63.37
2019-04-05T02:24:11.516Z,63.68
2019-04-05T02:25:11.513Z,63.78
2019-04-05T02:26:11.506Z,63.98
2019-04-05T02:27:11.515Z,63.68
2019-04-05T02:28:11.472Z,63.91
2019-04-05T02:29:11.466Z,64.53
2019-04-05T02:30:11.453Z,64.42
2019-04-05T02:31:11.439Z,64.22
2019-04-05T02:32:11.462Z,64.32
2019-04-05T02:33:11.416Z,63.91
2019-04-05T02:34:11.415Z,64.22
2019-04-05T02:35:11.400Z,64.62
2019-04-05T02:36:11.396Z,63.81
2019-04-05T02:37:11.401Z,64.12
2019-04-05T02:38:11.373Z,64.62
2019-04-05T02:39:11.356Z,63.81
2019-04-05T02:40:11.342Z,64.62
2019-04-05T02:41:11.334Z,64.53
2019-04-05T02:42:11.318Z,64.42
2019-04-05T02:43:11.319Z,64.32
2019-04-05T02:44:11.299Z,64.35
2019-04-05T02:45:11.309Z,64.22
2019-04-05T02:46:23.234Z,63.60
2019-04-05T02:47:12.266Z,63.81
2019-04-05T02:48:11.264Z,63.81
2019-04-05T02:49:11.258Z,64.42
2019-04-05T02:50:11.240Z,64.22
2019-04-05T02:51:11.233Z,64.01
2019-04-05T02:52:11.211Z,64.32
2019-04-05T02:53:11.239Z,64.22
2019-04-05T02:54:11.207Z,63.73
2019-04-05T02:55:11.188Z,64.32
2019-04-05T02:56:11.167Z,63.70
2019-04-05T02:57:11.165Z,63.60
2019-04-05T02:58:11.146Z,63.81
2019-04-05T02:59:11.155Z,63.73
2019-04-05T03:00:11.166Z,63.70
2019-04-05T03:01:11.117Z,63.81
2019-04-05T03:02:11.105Z,63.70
2019-04-05T03:03:11.104Z,64.22
2019-04-05T03:04:11.084Z,64.04
2019-04-05T03:05:11.073Z,63.60
2019-04-05T03:06:11.066Z,64.35
2019-04-05T03:07:11.049Z,64.65
2019-04-05T03:08:11.040Z,64.86
2019-04-05T03:09:11.028Z,64.69
2019-04-05T03:10:11.029Z,64.86
2019-04-05T03:11:11.006Z,65.07
2019-04-05T03:12:10.991Z,64.97
2019-04-05T03:13:11.004Z,64.65
2019-04-05T03:14:10.980Z,64.86
2019-04-05T03:15:10.979Z,64.65
2019-04-05T03:16:10.947Z,64.97
2019-04-05T03:17:10.937Z,64.65
2019-04-05T03:18:10.936Z,64.65
2019-04-05T03:19:10.917Z,64.45
2019-04-05T03:20:10.928Z,64.97
2019-04-05T03:21:10.892Z,64.65
2019-04-05T03:22:10.890Z,65.17
2019-04-05T03:23:10.876Z,64.86
2019-04-05T03:24:10.864Z,65.48
2019-04-05T03:25:10.875Z,65.41
2019-04-05T03:26:10.869Z,66.53
2019-04-05T03:27:10.832Z,66.74
2019-04-05T03:28:10.820Z,66.12
2019-04-05T03:29:10.823Z,65.51
2019-04-05T03:30:10.803Z,65.61
2019-04-05T03:31:10.808Z,65.71
2019-04-05T03:32:10.778Z,65.71
2019-04-05T03:33:10.762Z,65.61
2019-04-05T03:34:10.755Z,65.20
2019-04-05T03:35:10.781Z,65.27
2019-04-05T03:36:10.737Z,65.51
2019-04-05T03:37:10.723Z,65.51
2019-04-05T03:38:10.717Z,65.51
2019-04-05T03:39:10.695Z,65.51
2019-04-05T03:40:10.685Z,66.12
2019-04-05T03:41:10.715Z,65.92
2019-04-05T03:42:10.664Z,65.61
2019-04-05T03:43:10.657Z,66.22
2019-04-05T03:44:10.650Z,65.81
2019-04-05T03:45:10.636Z,65.81
2019-04-05T03:46:10.653Z,65.92
2019-04-05T03:47:10.657Z,66.02
2019-04-05T03:48:10.594Z,66.12
2019-04-05T03:49:10.604Z,66.16
2019-04-05T03:50:10.580Z,65.95
2019-04-05T03:51:10.565Z,65.95
2019-04-05T03:52:10.556Z,66.46
2019-04-05T03:53:10.559Z,66.36
2019-04-05T03:54:10.529Z,66.39
2019-04-05T03:55:10.522Z,66.60
2019-04-05T03:56:10.510Z,66.77
2019-04-05T03:57:10.499Z,66.87
2019-04-05T03:58:10.503Z,67.08
2019-04-05T03:59:10.473Z,66.80
2019-04-05T04:00:10.470Z,67.41
2019-04-05T04:01:10.455Z,67.32
2019-04-05T04:02:10.446Z,67.62
2019-04-05T04:03:10.444Z,68.24
2019-04-05T04:04:10.446Z,67.52
2019-04-05T04:05:10.421Z,67.35
2019-04-05T04:06:10.414Z,67.55
2019-04-05T04:07:10.389Z,68.16
2019-04-05T04:08:10.391Z,67.96
2019-04-05T04:09:10.367Z,68.57
2019-04-05T04:10:10.357Z,68.48
2019-04-05T04:11:10.349Z,67.96
2019-04-05T04:12:10.341Z,67.55
2019-04-05T04:13:10.321Z,68.37
2019-04-05T04:14:10.327Z,68.27
2019-04-05T04:15:13.547Z,68.78
2019-04-05T04:16:10.291Z,67.96
2019-04-05T04:17:12.738Z,68.57
2019-04-05T04:18:10.387Z,68.51
2019-04-05T04:19:10.252Z,68.51
2019-04-05T04:20:10.251Z,69.02
2019-04-05T04:21:10.239Z,69.23
2019-04-05T04:22:10.283Z,68.91
2019-04-05T04:23:10.206Z,69.53
2019-04-05T04:24:10.220Z,69.43
2019-04-05T04:25:10.210Z,69.53
2019-04-05T04:26:10.171Z,69.56
2019-04-05T04:27:10.176Z,69.84
2019-04-05T04:28:10.153Z,69.74
2019-04-05T04:29:10.150Z,69.84
2019-04-05T04:30:10.134Z,69.32
2019-04-05T04:31:10.124Z,69.43
2019-04-05T04:32:10.110Z,69.74
2019-04-05T04:33:10.100Z,69.74
2019-04-05T04:34:10.098Z,69.43
2019-04-05T04:35:10.072Z,69.94
2019-04-05T04:36:13.139Z,69.98
2019-04-05T04:37:10.050Z,70.49
2019-04-05T04:38:10.073Z,70.32
2019-04-05T04:39:10.036Z,70.32
2019-04-05T04:40:10.027Z,71.04
2019-04-05T04:41:10.009Z,70.86
2019-04-05T04:42:10.003Z,71.66
2019-04-05T04:43:09.989Z,72.72
2019-04-05T04:44:09.979Z,71.79
2019-04-05T04:45:12.485Z,71.89
2019-04-05T04:46:09.955Z,72.00
2019-04-05T04:47:09.946Z,71.48
2019-04-05T04:48:09.937Z,71.69
2019-04-05T04:49:09.925Z,72.00
2019-04-05T04:50:09.974Z,72.75
2019-04-05T04:51:09.897Z,72.75
2019-04-05T04:52:09.889Z,72.54
2019-04-05T04:53:09.878Z,72.44
2019-04-05T04:54:09.875Z,72.75
2019-04-05T04:55:09.856Z,72.96
2019-04-05T04:56:09.847Z,72.92
2019-04-05T04:57:09.829Z,72.68
2019-04-05T04:58:09.821Z,72.17
2019-04-05T04:59:09.812Z,71.11
2019-04-05T05:00:09.807Z,70.25
2019-04-05T05:01:09.798Z,70.32
2019-04-05T05:02:09.773Z,69.29
2019-04-05T05:03:09.760Z,69.16
2019-04-05T05:04:09.756Z,67.69
2019-04-05T05:05:09.760Z,66.97
2019-04-05T05:06:09.752Z,66.33
2019-04-05T05:07:09.717Z,65.92
2019-04-05T05:08:09.711Z,66.09
2019-04-05T05:09:09.703Z,65.58
2019-04-05T05:10:09.692Z,65.14
2019-04-05T05:11:14.725Z,65.24
2019-04-05T05:12:10.699Z,64.94
2019-04-05T05:13:09.651Z,64.39
2019-04-05T05:14:09.651Z,64.18
2019-04-05T05:15:09.629Z,63.44
2019-04-05T05:16:09.622Z,63.57
2019-04-05T05:17:09.609Z,63.54
2019-04-05T05:18:09.608Z,63.24
2019-04-05T05:19:09.583Z,62.70
2019-04-05T05:20:09.584Z,62.80
2019-04-05T05:21:09.571Z,61.65
2019-04-05T05:22:09.554Z,61.44
2019-04-05T05:23:09.537Z,61.24
2019-04-05T05:24:09.534Z,60.97
2019-04-05T05:25:09.517Z,60.28
2019-04-05T05:26:09.522Z,60.36
2019-04-05T05:27:09.497Z,60.46
2019-04-05T05:28:09.485Z,59.11
2019-04-05T05:29:09.476Z,59.00
2019-04-05T05:30:09.467Z,59.49
2019-04-05T05:31:09.466Z,58.75
2019-04-05T05:32:09.872Z,57.96
2019-04-05T05:33:09.451Z,59.08
2019-04-05T05:34:09.422Z,58.80
2019-04-05T05:35:09.418Z,59.21
2019-04-05T05:36:10.679Z,59.08
2019-04-05T05:37:09.411Z,58.44
2019-04-05T05:38:09.375Z,58.64
2019-04-05T05:39:09.375Z,57.52
2019-04-05T05:40:09.354Z,58.14
2019-04-05T05:41:09.350Z,58.67
2019-04-05T05:42:09.389Z,58.98
2019-04-05T05:43:09.326Z,59.28
2019-04-05T05:44:09.311Z,59.05
2019-04-05T05:45:09.339Z,59.39
2019-04-05T05:46:09.285Z,60.71
2019-04-05T05:47:09.301Z,62.30
2019-04-05T05:48:09.277Z,62.40
2019-04-05T05:49:09.265Z,63.35
2019-04-05T05:50:09.244Z,64.92
2019-04-05T05:51:09.231Z,66.07
2019-04-05T05:52:09.232Z,66.38
2019-04-05T05:53:09.219Z,66.58
2019-04-05T05:54:09.198Z,67.23
2019-04-05T05:55:09.188Z,68.49
2019-04-05T05:56:09.179Z,68.69
2019-04-05T05:57:09.185Z,69.00
2019-04-05T05:58:09.157Z,69.13
2019-04-05T05:59:09.159Z,70.16
2019-04-05T06:00:09.174Z,70.16
2019-04-05T06:01:09.143Z,69.44
2019-04-05T06:02:09.140Z,69.95
2019-04-05T06:03:11.344Z,70.91
2019-04-05T06:04:09.096Z,71.66
2019-04-05T06:05:09.080Z,71.52
2019-04-05T06:06:09.081Z,71.66
2019-04-05T06:07:09.066Z,72.17
2019-04-05T06:08:09.051Z,72.82
2019-04-05T06:09:09.034Z,72.68
2019-04-05T06:10:09.028Z,72.38
2019-04-05T06:11:09.011Z,72.92
2019-04-05T06:12:09.016Z,74.32
2019-04-05T06:13:09.020Z,76.38
2019-04-05T06:14:08.982Z,79.03
2019-04-05T06:15:08.970Z,81.02
2019-04-05T06:16:08.969Z,81.81
2019-04-05T06:17:08.955Z,84.22
2019-04-05T06:18:12.040Z,84.84
2019-04-05T06:19:08.929Z,85.91
2019-04-05T06:20:08.916Z,86.63
2019-04-05T06:21:08.904Z,87.46
2019-04-05T06:22:08.899Z,86.94
2019-04-05T06:23:08.888Z,86.74
2019-04-05T06:24:08.887Z,86.43
2019-04-05T06:25:08.857Z,87.46
2019-04-05T06:26:08.877Z,88.39
2019-04-05T06:27:08.848Z,88.39
2019-04-05T06:28:08.826Z,89.15
2019-04-05T06:29:08.811Z,88.95
2019-04-05T06:30:08.799Z,88.95
2019-04-05T06:31:08.793Z,89.77
2019-04-05T06:32:08.781Z,90.39
2019-04-05T06:33:08.777Z,90.19
2019-04-05T06:34:08.756Z,90.19
2019-04-05T06:35:08.751Z,90.28
2019-04-05T06:36:08.738Z,90.28
2019-04-05T06:37:08.738Z,90.19
2019-04-05T06:38:08.716Z,90.49
2019-04-05T06:39:08.701Z,90.28
2019-04-05T06:40:08.693Z,90.08
2019-04-05T06:41:08.687Z,90.43
2019-04-05T06:42:08.688Z,91.01
2019-04-05T06:43:08.656Z,91.01
2019-04-05T06:44:08.653Z,90.95
2019-04-05T06:45:08.634Z,91.46
2019-04-05T06:46:08.630Z,91.63
2019-04-05T06:47:08.642Z,91.98
2019-04-05T06:48:18.988Z,91.46
2019-04-05T06:49:09.593Z,91.77
2019-04-05T06:50:08.584Z,91.67
2019-04-05T06:51:08.572Z,91.73
2019-04-05T06:52:08.556Z,92.50
2019-04-05T06:53:08.563Z,92.04
2019-04-05T06:54:08.548Z,92.25
2019-04-05T06:55:08.525Z,91.52
2019-04-05T06:56:08.518Z,91.89
2019-04-05T06:57:08.513Z,92.35
2019-04-05T06:58:10.310Z,91.73
2019-04-05T06:59:08.482Z,91.73
2019-04-05T07:00:08.472Z,91.52
2019-04-05T07:01:08.461Z,91.69
2019-04-05T07:02:08.447Z,91.69
2019-04-05T07:03:08.441Z,91.89
2019-04-05T07:04:08.444Z,91.69
2019-04-05T07:05:08.468Z,91.69
2019-04-05T07:06:08.407Z,91.54
2019-04-05T07:07:08.395Z,91.44
2019-04-05T07:08:08.384Z,91.03
2019-04-05T07:09:08.368Z,91.34
2019-04-05T07:10:08.359Z,91.34
2019-04-05T07:11:08.370Z,91.58
2019-04-05T07:12:08.388Z,91.58
2019-04-05T07:13:08.432Z,91.58
2019-04-05T07:14:08.324Z,92.31
2019-04-05T07:15:08.347Z,92.00
2019-04-05T07:16:10.998Z,92.35
2019-04-05T07:17:08.280Z,92.82
2019-04-05T07:18:08.270Z,93.07
2019-04-05T07:19:08.262Z,92.82
2019-04-05T07:20:08.250Z,92.93
2019-04-05T07:21:08.244Z,92.99
2019-04-05T07:22:08.229Z,92.88
2019-04-05T07:23:08.214Z,92.68
2019-04-05T07:24:08.201Z,92.47
2019-04-05T07:25:08.203Z,92.27
2019-04-05T07:26:08.183Z,92.02
2019-04-05T07:27:08.170Z,92.02
2019-04-05T07:28:08.159Z,92.02
2019-04-05T07:29:08.158Z,92.43
2019-04-05T07:30:08.141Z,91.56
2019-04-05T07:31:08.301Z,90.94
2019-04-05T07:32:08.129Z,90.53
2019-04-05T07:33:08.108Z,90.67
2019-04-05T07:34:08.099Z,91.09
2019-04-05T07:35:08.079Z,90.88
2019-04-05T07:36:08.075Z,90.64
2019-04-05T07:37:08.065Z,90.78
2019-04-05T07:38:09.782Z,91.19
2019-04-05T07:39:08.040Z,91.30
2019-04-05T07:40:08.040Z,91.50
2019-04-05T07:41:16.217Z,90.94
2019-04-05T07:42:08.012Z,90.64
2019-04-05T07:43:08.046Z,90.53
2019-04-05T07:44:07.985Z,90.28
2019-04-05T07:45:07.968Z,89.91
2019-04-05T07:46:08.011Z,90.22
2019-04-05T07:47:07.998Z,89.91
2019-04-05T07:48:07.939Z,90.57
2019-04-05T07:49:07.929Z,91.50
2019-04-05T07:50:07.918Z,90.67
2019-04-05T07:51:07.911Z,90.99
2019-04-05T07:52:07.893Z,91.50
2019-04-05T07:53:07.889Z,91.60
2019-04-05T07:54:07.874Z,91.40
2019-04-05T07:55:07.866Z,91.71
2019-04-05T07:56:07.854Z,92.02
2019-04-05T07:57:07.835Z,92.22
2019-04-05T07:58:07.833Z,92.33
2019-04-05T07:59:07.816Z,92.08
2019-04-05T08:00:07.807Z,91.83
2019-04-05T08:01:07.799Z,92.14
2019-04-05T08:02:07.786Z,91.42
2019-04-05T08:03:07.822Z,91.62
2019-04-05T08:04:07.763Z,90.90
2019-04-05T08:05:07.747Z,90.69
2019-04-05T08:06:07.742Z,90.80
2019-04-05T08:07:07.732Z,90.18
2019-04-05T08:08:07.716Z,90.39
2019-04-05T08:09:07.714Z,90.49
2019-04-05T08:10:07.699Z,90.90
2019-04-05T08:11:07.683Z,90.80
2019-04-05T08:12:07.673Z,90.69
2019-04-05T08:13:07.659Z,90.59
2019-04-05T08:14:07.664Z,90.80
2019-04-05T08:15:07.640Z,90.18
2019-04-05T08:16:07.629Z,90.18
2019-04-05T08:17:07.617Z,90.18
2019-04-05T08:18:07.611Z,90.55
2019-04-05T08:19:07.609Z,90.24
2019-04-05T08:20:07.581Z,90.09
2019-04-05T08:21:07.568Z,90.09
2019-04-05T08:22:07.557Z,89.95
2019-04-05T08:23:07.551Z,89.34
2019-04-05T08:24:07.541Z,88.72
2019-04-05T08:25:07.539Z,88.27
2019-04-05T08:26:07.515Z,86.77
2019-04-05T08:27:07.503Z,87.04
2019-04-05T08:28:07.491Z,86.46
2019-04-05T08:29:07.486Z,86.25
2019-04-05T08:30:07.484Z,86.87
2019-04-05T08:31:10.831Z,86.56
2019-04-05T08:32:14.284Z,87.18
2019-04-05T08:33:08.438Z,86.66
2019-04-05T08:34:07.429Z,86.56
2019-04-05T08:35:07.425Z,86.56
2019-04-05T08:36:07.421Z,86.56
2019-04-05T08:37:07.395Z,86.66
2019-04-05T08:38:07.387Z,86.87
2019-04-05T08:39:07.370Z,87.13
2019-04-05T08:40:07.362Z,86.52
2019-04-05T08:41:07.359Z,87.24
2019-04-05T08:42:07.334Z,86.83
2019-04-05T08:43:07.332Z,86.42
2019-04-05T08:44:07.314Z,87.34
2019-04-05T08:45:07.302Z,86.58
2019-04-05T08:46:07.306Z,85.76
2019-04-05T08:47:07.288Z,86.17
2019-04-05T08:48:07.282Z,85.76
2019-04-05T08:49:10.825Z,85.25
2019-04-05T08:50:07.252Z,85.04
2019-04-05T08:51:07.243Z,85.25
2019-04-05T08:52:07.259Z,85.35
2019-04-05T08:53:07.224Z,84.84
2019-04-05T08:54:07.209Z,84.90
2019-04-05T08:55:07.197Z,84.59
2019-04-05T08:56:07.188Z,84.28
2019-04-05T08:57:07.218Z,84.69
2019-04-05T08:58:07.172Z,83.98
2019-04-05T08:59:07.152Z,83.77
2019-04-05T09:00:07.168Z,84.08
2019-04-05T09:01:07.139Z,84.53
2019-04-05T09:02:07.122Z,84.84
2019-04-05T09:03:07.120Z,85.14
2019-04-05T09:04:07.158Z,85.35
2019-04-05T09:05:07.089Z,85.35
2019-04-05T09:06:07.080Z,84.80
2019-04-05T09:07:07.062Z,85.21
2019-04-05T09:08:07.073Z,84.59
2019-04-05T09:09:07.042Z,84.18
2019-04-05T09:10:07.051Z,83.32
2019-04-05T09:11:07.020Z,83.63
2019-04-05T09:12:07.005Z,83.26
2019-04-05T09:13:06.999Z,84.08
2019-04-05T09:14:06.997Z,84.39
2019-04-05T09:15:06.976Z,84.12
2019-04-05T09:16:06.964Z,84.42
2019-04-05T09:17:06.951Z,84.28
2019-04-05T09:18:06.943Z,84.94
2019-04-05T09:19:06.935Z,84.28
2019-04-05T09:20:06.923Z,84.53
2019-04-05T09:21:09.832Z,84.53
2019-04-05T09:22:06.890Z,85.35
2019-04-05T09:23:06.886Z,85.31
2019-04-05T09:24:06.868Z,85.21
2019-04-05T09:25:06.863Z,84.49
2019-04-05T09:26:06.851Z,84.49
2019-04-05T09:27:06.837Z,84.49
2019-04-05T09:28:06.831Z,84.69
2019-04-05T09:29:09.100Z,84.53
2019-04-05T09:30:06.816Z,85.31
2019-04-05T09:31:06.800Z,85.25
2019-04-05T09:32:06.790Z,85.21
2019-04-05T09:33:06.776Z,84.69
2019-04-05T09:34:06.764Z,84.45
2019-04-05T09:35:06.754Z,84.45
2019-04-05T09:36:06.751Z,83.98
2019-04-05T09:37:06.732Z,84.25
2019-04-05T09:38:06.714Z,84.49
2019-04-05T09:39:06.707Z,84.86
2019-04-05T09:40:06.752Z,84.25
2019-04-05T09:41:06.681Z,84.14
2019-04-05T09:42:06.676Z,84.39
2019-04-05T09:43:06.670Z,84.45
2019-04-05T09:44:06.654Z,84.66
2019-04-05T09:45:06.707Z,84.04
2019-04-05T09:46:06.640Z,83.83
2019-04-05T09:47:06.620Z,84.25
2019-04-05T09:48:06.616Z,83.94
2019-04-05T09:49:06.591Z,84.04
2019-04-05T09:50:06.580Z,84.18
2019-04-05T09:51:07.295Z,84.25
2019-04-05T09:52:06.565Z,84.18
2019-04-05T09:53:06.557Z,84.39
2019-04-05T09:54:06.541Z,84.04
2019-04-05T09:55:06.528Z,84.34
2019-04-05T09:56:06.701Z,84.14
2019-04-05T09:57:06.505Z,84.04
2019-04-05T09:58:06.489Z,83.83
2019-04-05T09:59:06.480Z,84.66
2019-04-05T10:00:06.466Z,84.14
2019-04-05T10:01:06.455Z,84.31
2019-04-05T10:02:06.459Z,83.59
2019-04-05T10:03:06.437Z,83.94
2019-04-05T10:04:06.443Z,83.94
2019-04-05T10:05:06.415Z,84.45
2019-04-05T10:06:06.396Z,84.55
2019-04-05T10:07:06.386Z,83.94
2019-04-05T10:08:06.383Z,84.96
2019-04-05T10:09:06.401Z,84.55
2019-04-05T10:10:06.356Z,84.00
2019-04-05T10:11:06.345Z,83.39
2019-04-05T10:12:06.328Z,83.28
2019-04-05T10:13:06.324Z,83.28
2019-04-05T10:14:06.305Z,83.80
2019-04-05T10:15:06.309Z,83.18
2019-04-05T10:16:06.282Z,82.97
2019-04-05T10:17:06.275Z,83.07
2019-04-05T10:18:06.277Z,82.97
2019-04-05T10:19:06.257Z,82.87
2019-04-05T10:20:06.251Z,83.07
2019-04-05T10:21:06.233Z,82.87
2019-04-05T10:22:06.215Z,83.04
2019-04-05T10:23:06.202Z,81.91
2019-04-05T10:24:06.199Z,82.01
2019-04-05T10:25:06.231Z,81.91
2019-04-05T10:26:06.168Z,81.91
2019-04-05T10:27:06.157Z,81.91
2019-04-05T10:28:06.145Z,81.91
2019-04-05T10:29:06.140Z,81.36
2019-04-05T10:30:06.138Z,81.20
2019-04-05T10:31:06.137Z,81.50
2019-04-05T10:32:06.105Z,81.60
2019-04-05T10:33:06.097Z,81.81
2019-04-05T10:34:06.077Z,82.42
2019-04-05T10:35:06.066Z,82.63
2019-04-05T10:36:06.056Z,82.83
2019-04-05T10:37:06.054Z,82.59
2019-04-05T10:38:06.041Z,81.67
2019-04-05T10:39:06.027Z,81.05
2019-04-05T10:40:06.025Z,80.44
2019-04-05T10:41:06.002Z,80.23
2019-04-05T10:42:06.012Z,80.51
2019-04-05T10:43:05.985Z,79.68
2019-04-05T10:44:05.972Z,79.24
2019-04-05T10:45:05.956Z,78.52
2019-04-05T10:46:05.960Z,78.69
2019-04-05T10:47:05.934Z,77.56
2019-04-05T10:48:05.937Z,77.70
2019-04-05T10:49:05.911Z,77.29
2019-04-05T10:50:05.916Z,77.60
2019-04-05T10:51:05.897Z,78.21
2019-04-05T10:52:05.877Z,78.28
2019-04-05T10:53:05.933Z,79.30
2019-04-05T10:54:05.856Z,77.22
2019-04-05T10:55:05.847Z,76.20
2019-04-05T10:56:05.833Z,76.67
2019-04-05T10:57:05.823Z,76.57
2019-04-05T10:58:05.819Z,75.75
2019-04-05T10:59:05.816Z,75.62
2019-04-05T11:00:05.795Z,74.84
2019-04-05T11:01:05.780Z,74.90
2019-04-05T11:02:05.767Z,75.31
2019-04-05T11:03:05.769Z,75.17
2019-04-05T11:04:05.744Z,74.56
2019-04-05T11:05:05.733Z,74.05
2019-04-05T11:06:05.738Z,74.39
2019-04-05T11:07:05.717Z,74.05
2019-04-05T11:08:05.718Z,74.25
2019-04-05T11:09:05.692Z,74.46
2019-04-05T11:10:05.715Z,74.66
2019-04-05T11:11:05.712Z,74.76
2019-04-05T11:12:08.474Z,74.35
2019-04-05T11:13:05.644Z,73.84
2019-04-05T11:14:13.598Z,73.33
2019-04-05T11:15:06.621Z,74.52
2019-04-05T11:16:05.617Z,73.60
2019-04-05T11:17:05.611Z,73.03
2019-04-05T11:18:05.591Z,73.54
2019-04-05T11:19:05.577Z,73.64
2019-04-05T11:20:20.144Z,72.89
2019-04-05T11:21:06.555Z,72.04
2019-04-05T11:22:05.549Z,70.92
2019-04-05T11:23:05.538Z,71.22
2019-04-05T11:24:05.522Z,71.43
2019-04-05T11:25:05.517Z,71.84
2019-04-05T11:26:05.515Z,72.11
2019-04-05T11:27:06.826Z,71.29
2019-04-05T11:28:05.482Z,72.21
2019-04-05T11:29:05.472Z,70.44
2019-04-05T11:30:05.459Z,70.14
2019-04-05T11:31:05.484Z,70.75
2019-04-05T11:32:05.433Z,69.80
2019-04-05T11:33:05.426Z,69.76
2019-04-05T11:34:05.416Z,68.41
2019-04-05T11:35:05.406Z,68.41
2019-04-05T11:36:05.393Z,67.57
2019-04-05T11:37:05.387Z,67.16
2019-04-05T11:38:05.374Z,67.36
2019-04-05T11:39:05.522Z,66.31
2019-04-05T11:40:05.355Z,66.85
2019-04-05T11:41:05.338Z,66.92
2019-04-05T11:42:05.349Z,66.61
2019-04-05T11:43:05.317Z,66.52
2019-04-05T11:44:05.304Z,66.14
2019-04-05T11:45:05.288Z,66.44
2019-04-05T11:46:05.277Z,66.96
2019-04-05T11:47:05.265Z,66.55
2019-04-05T11:48:05.269Z,66.41
2019-04-05T11:49:05.246Z,66.11
2019-04-05T11:50:05.238Z,65.91
2019-04-05T11:51:05.231Z,66.35
2019-04-05T11:52:05.217Z,66.31
2019-04-05T11:53:05.229Z,66.31
2019-04-05T11:54:05.192Z,66.55
2019-04-05T11:55:05.176Z,66.55
2019-04-05T11:56:14.653Z,67.16
2019-04-05T11:57:06.154Z,66.82
2019-04-05T11:58:05.143Z,65.91
2019-04-05T11:59:05.147Z,66.31
2019-04-05T12:00:05.128Z,66.11
2019-04-05T12:01:05.118Z,65.97
2019-04-05T12:02:05.097Z,65.67
2019-04-05T12:03:05.094Z,65.54
2019-04-05T12:04:05.089Z,64.93
2019-04-05T12:05:05.116Z,64.49
2019-04-05T12:06:05.067Z,64.49
2019-04-05T12:07:05.046Z,64.42
2019-04-05T12:08:05.036Z,64.90
2019-04-05T12:09:05.034Z,62.84
2019-04-05T12:10:13.073Z,63.24
2019-04-05T12:11:05.001Z,63.55
2019-04-05T12:12:04.993Z,63.04
2019-04-05T12:13:04.990Z,63.17
2019-04-05T12:14:05.004Z,64.12
2019-04-05T12:15:06.482Z,64.83
2019-04-05T12:16:06.057Z,64.09
2019-04-05T12:17:05.680Z,64.29
2019-04-05T12:18:05.325Z,63.68
2019-04-05T12:19:05.498Z,63.65
2019-04-05T12:20:04.921Z,63.45
2019-04-05T12:21:05.718Z,62.91
2019-04-05T12:22:05.842Z,61.99
2019-04-05T12:23:04.877Z,60.85
2019-04-05T12:24:04.857Z,61.33
2019-04-05T12:25:04.878Z,60.79
2019-04-05T12:26:05.048Z,60.06
2019-04-05T12:27:05.633Z,59.52
2019-04-05T12:28:06.932Z,59.29
2019-04-05T12:29:04.802Z,58.69
2019-04-05T12:30:04.793Z,57.65
2019-04-05T12:31:04.795Z,56.63
2019-04-05T12:32:04.775Z,57.07
2019-04-05T12:33:13.945Z,57.07
2019-04-05T12:34:05.752Z,57.44
2019-04-05T12:35:04.746Z,58.31
2019-04-05T12:36:04.730Z,59.14
2019-04-05T12:37:04.726Z,58.81
2019-04-05T12:38:07.014Z,58.05
2019-04-05T12:39:08.050Z,57.65
2019-04-05T12:40:05.242Z,57.67
2019-04-05T12:41:04.680Z,57.20
2019-04-05T12:42:04.659Z,59.05
2019-04-05T12:43:04.649Z,60.06
2019-04-05T12:44:04.647Z,59.01
2019-04-05T12:45:04.668Z,57.98
2019-04-05T12:46:04.622Z,58.25
2019-04-05T12:47:04.604Z,58.36
2019-04-05T12:48:04.600Z,58.07
2019-04-05T12:49:04.587Z,57.87
2019-04-05T12:50:04.576Z,58.48
2019-04-05T12:51:05.631Z,57.47
2019-04-05T12:52:04.550Z,57.90